YSSY/SYD METAR and TAF weather

Enter ICAO airport designator
Station Type Date Time Source
YSSY METAR 2020/09/18 16:00 UTC NOAA

YSSY 181600Z 31005KT 9999 VCSH FEW003 BKN012 16/15 Q1027


Station Type Date Time Source
YSSY Decoded METAR 2020/09/18 16:00 UTC NOAA

Sydney Airport, Australia (YSSY) 33-57S 151-11E 3M
Sep 18, 2020 - 12:00 PM EDT / 2020.09.18 1600 UTC
Wind: from the NW (310 degrees) at 6 MPH (5 KT):0
Visibility: greater than 7 mile(s):0
Sky conditions: mostly cloudy
Weather: showers in the vicinity
Temperature: 60 F (16 C)
Dew Point: 59 F (15 C)
Relative Humidity: 93%
Pressure (altimeter): 30.33 in. Hg (1027 hPa)
ob: YSSY 181600Z 31005KT 9999 VCSH FEW003 BKN012 16/15 Q1027
cycle: 16

Station Type Date Time Source
YSSY TAF 2020/09/18 14:18 UTC NOAA

TAF
AMD TAF
AMD YSSY 181316Z 1814/1918 20005KT 9999 -SHRA BKN005
FM182000 05005KT 9999 -SHRA FEW007 BKN010
FM190000 05015KT 9999 -SHRA FEW015 SCT025
FM191200 02012KT CAVOK
TEMPO 1814/1900 4000 -DZ SCT003 BKN005 INTER 1900/1908 6000 -SHRA BKN010

Example: see airport list